sensor_id;sensor_type;location;lat;lon;timestamp;pressure;altitude;pressure_sealevel;temperature;humidity
11011;BME280;5558;42.702;23.178;2022-07-23T00:01:00;93978.34;;;19.94;66.07
11011;BME280;5558;42.702;23.178;2022-07-23T00:03:26;93982.09;;;19.93;66.16
11011;BME280;5558;42.702;23.178;2022-07-23T00:05:54;93983.69;;;19.77;67.16
11011;BME280;5558;42.702;23.178;2022-07-23T00:08:21;93980.50;;;19.75;67.50
11011;BME280;5558;42.702;23.178;2022-07-23T00:10:48;93987.09;;;19.69;67.91
11011;BME280;5558;42.702;23.178;2022-07-23T00:13:15;93986.16;;;19.65;68.51
11011;BME280;5558;42.702;23.178;2022-07-23T00:15:42;93985.84;;;19.66;68.68
11011;BME280;5558;42.702;23.178;2022-07-23T00:18:08;93992.97;;;19.71;68.59
11011;BME280;5558;42.702;23.178;2022-07-23T00:20:35;93989.97;;;19.72;68.39
11011;BME280;5558;42.702;23.178;2022-07-23T00:23:03;93983.97;;;19.67;68.49
11011;BME280;5558;42.702;23.178;2022-07-23T00:25:30;93996.44;;;19.71;68.38
11011;BME280;5558;42.702;23.178;2022-07-23T00:27:57;93995.50;;;19.76;67.80
11011;BME280;5558;42.702;23.178;2022-07-23T00:30:24;93997.09;;;19.77;67.62
11011;BME280;5558;42.702;23.178;2022-07-23T00:32:53;93994.25;;;19.73;67.71
11011;BME280;5558;42.702;23.178;2022-07-23T00:35:22;93995.34;;;19.72;67.60
11011;BME280;5558;42.702;23.178;2022-07-23T00:37:49;93990.75;;;19.73;67.99
11011;BME280;5558;42.702;23.178;2022-07-23T00:40:17;93995.03;;;19.65;68.64
11011;BME280;5558;42.702;23.178;2022-07-23T00:42:44;93998.81;;;19.64;68.85
11011;BME280;5558;42.702;23.178;2022-07-23T00:45:11;93992.16;;;19.62;69.13
11011;BME280;5558;42.702;23.178;2022-07-23T00:47:38;93988.84;;;19.56;69.10
11011;BME280;5558;42.702;23.178;2022-07-23T00:50:07;93990.19;;;19.45;69.88
11011;BME280;5558;42.702;23.178;2022-07-23T00:52:34;93992.25;;;19.39;70.29
11011;BME280;5558;42.702;23.178;2022-07-23T00:55:03;93981.69;;;19.43;70.17
11011;BME280;5558;42.702;23.178;2022-07-23T00:57:31;93991.13;;;19.40;70.23
11011;BME280;5558;42.702;23.178;2022-07-23T00:59:58;93989.72;;;19.34;70.99
11011;BME280;5558;42.702;23.178;2022-07-23T01:02:26;93991.09;;;19.32;71.57
11011;BME280;5558;42.702;23.178;2022-07-23T01:04:53;93991.03;;;19.23;72.00
11011;BME280;5558;42.702;23.178;2022-07-23T01:07:21;93985.13;;;19.13;72.45
11011;BME280;5558;42.702;23.178;2022-07-23T01:09:49;93987.28;;;18.94;73.60
11011;BME280;5558;42.702;23.178;2022-07-23T01:12:17;93992.91;;;18.84;74.23
11011;BME280;5558;42.702;23.178;2022-07-23T01:14:45;93991.88;;;18.49;76.16
11011;BME280;5558;42.702;23.178;2022-07-23T01:17:11;93992.66;;;18.50;76.32
11011;BME280;5558;42.702;23.178;2022-07-23T01:19:38;93989.81;;;18.46;76.74
11011;BME280;5558;42.702;23.178;2022-07-23T01:22:06;93992.38;;;18.51;76.29
11011;BME280;5558;42.702;23.178;2022-07-23T01:24:34;93983.94;;;18.44;76.30
11011;BME280;5558;42.702;23.178;2022-07-23T01:27:02;93975.06;;;18.21;76.82
11011;BME280;5558;42.702;23.178;2022-07-23T01:29:30;93977.97;;;18.11;78.03
11011;BME280;5558;42.702;23.178;2022-07-23T01:31:57;93976.59;;;17.78;80.80
11011;BME280;5558;42.702;23.178;2022-07-23T01:34:24;93975.56;;;17.88;80.29
11011;BME280;5558;42.702;23.178;2022-07-23T01:36:50;93986.69;;;17.81;81.11
11011;BME280;5558;42.702;23.178;2022-07-23T01:39:17;93979.66;;;17.85;81.54
11011;BME280;5558;42.702;23.178;2022-07-23T01:41:45;93975.84;;;18.00;80.17
11011;BME280;5558;42.702;23.178;2022-07-23T01:44:12;93985.94;;;18.03;79.10
11011;BME280;5558;42.702;23.178;2022-07-23T01:46:39;93982.50;;;18.02;78.08
11011;BME280;5558;42.702;23.178;2022-07-23T01:49:06;93979.00;;;18.02;78.29
11011;BME280;5558;42.702;23.178;2022-07-23T01:51:32;93976.59;;;17.78;79.21
11011;BME280;5558;42.702;23.178;2022-07-23T01:53:59;93981.84;;;17.70;80.11
11011;BME280;5558;42.702;23.178;2022-07-23T01:56:26;93978.38;;;17.69;80.79
11011;BME280;5558;42.702;23.178;2022-07-23T01:58:54;93982.66;;;17.70;80.65
11011;BME280;5558;42.702;23.178;2022-07-23T02:01:20;93984.72;;;17.87;79.49
11011;BME280;5558;42.702;23.178;2022-07-23T02:03:47;93987.38;;;17.87;79.36
11011;BME280;5558;42.702;23.178;2022-07-23T02:06:14;93983.78;;;17.91;78.92
11011;BME280;5558;42.702;23.178;2022-07-23T02:08:41;93984.00;;;17.95;78.80
11011;BME280;5558;42.702;23.178;2022-07-23T02:11:08;93979.44;;;17.95;78.24
11011;BME280;5558;42.702;23.178;2022-07-23T02:13:34;93980.44;;;17.99;78.12
11011;BME280;5558;42.702;23.178;2022-07-23T02:16:03;93982.59;;;17.97;78.42
11011;BME280;5558;42.702;23.178;2022-07-23T02:18:29;93982.03;;;17.87;78.87
11011;BME280;5558;42.702;23.178;2022-07-23T02:20:56;93983.91;;;17.86;79.71
11011;BME280;5558;42.702;23.178;2022-07-23T02:23:23;93980.16;;;17.87;80.05
11011;BME280;5558;42.702;23.178;2022-07-23T02:25:50;93982.84;;;17.87;79.74
11011;BME280;5558;42.702;23.178;2022-07-23T02:28:16;93966.50;;;17.75;79.53
11011;BME280;5558;42.702;23.178;2022-07-23T02:30:43;93976.19;;;17.85;79.36
11011;BME280;5558;42.702;23.178;2022-07-23T02:33:11;93977.59;;;17.82;79.78
11011;BME280;5558;42.702;23.178;2022-07-23T02:35:38;93976.59;;;17.78;79.92
11011;BME280;5558;42.702;23.178;2022-07-23T02:38:04;93978.16;;;17.79;79.94
11011;BME280;5558;42.702;23.178;2022-07-23T02:40:31;93977.97;;;17.76;79.68
11011;BME280;5558;42.702;23.178;2022-07-23T02:42:58;93984.72;;;17.73;79.02
11011;BME280;5558;42.702;23.178;2022-07-23T02:45:25;93982.97;;;17.69;78.95
11011;BME280;5558;42.702;23.178;2022-07-23T02:47:51;93984.75;;;17.60;79.47
11011;BME280;5558;42.702;23.178;2022-07-23T02:50:19;93988.31;;;17.69;78.57
11011;BME280;5558;42.702;23.178;2022-07-23T02:52:47;93992.88;;;17.68;78.70
11011;BME280;5558;42.702;23.178;2022-07-23T02:55:13;93988.63;;;17.67;78.24
11011;BME280;5558;42.702;23.178;2022-07-23T02:57:40;93991.88;;;17.64;78.47
11011;BME280;5558;42.702;23.178;2022-07-23T03:00:08;93999.34;;;17.67;77.87
11011;BME280;5558;42.702;23.178;2022-07-23T03:02:35;93994.94;;;17.71;78.06
11011;BME280;5558;42.702;23.178;2022-07-23T03:05:02;93996.81;;;17.71;78.13
11011;BME280;5558;42.702;23.178;2022-07-23T03:07:30;94000.91;;;17.68;78.33
11011;BME280;5558;42.702;23.178;2022-07-23T03:09:57;94009.94;;;17.59;77.97
11011;BME280;5558;42.702;23.178;2022-07-23T03:12:24;94007.63;;;17.66;78.01
11011;BME280;5558;42.702;23.178;2022-07-23T03:14:50;94010.03;;;17.67;77.85
11011;BME280;5558;42.702;23.178;2022-07-23T03:17:17;94016.47;;;17.80;77.36
11011;BME280;5558;42.702;23.178;2022-07-23T03:19:44;94019.81;;;17.85;77.05
11011;BME280;5558;42.702;23.178;2022-07-23T03:22:10;94018.63;;;17.91;76.66
11011;BME280;5558;42.702;23.178;2022-07-23T03:24:39;94025.16;;;17.99;75.24
11011;BME280;5558;42.702;23.178;2022-07-23T03:27:30;94026.34;;;17.93;74.76
11011;BME280;5558;42.702;23.178;2022-07-23T03:29:58;94021.50;;;17.95;74.10
11011;BME280;5558;42.702;23.178;2022-07-23T03:32:25;94033.00;;;17.95;73.87
11011;BME280;5558;42.702;23.178;2022-07-23T03:34:54;94021.88;;;18.02;73.66
11011;BME280;5558;42.702;23.178;2022-07-23T03:37:21;94023.34;;;18.08;73.22
11011;BME280;5558;42.702;23.178;2022-07-23T03:39:49;94023.13;;;18.18;72.03
11011;BME280;5558;42.702;23.178;2022-07-23T03:42:16;94024.78;;;18.27;71.74
11011;BME280;5558;42.702;23.178;2022-07-23T03:44:42;94010.16;;;18.34;70.21
11011;BME280;5558;42.702;23.178;2022-07-23T03:47:11;94033.78;;;18.67;70.05
11011;BME280;5558;42.702;23.178;2022-07-23T03:49:37;94022.59;;;18.87;68.57
11011;BME280;5558;42.702;23.178;2022-07-23T03:52:04;94032.53;;;19.17;67.65
11011;BME280;5558;42.702;23.178;2022-07-23T03:54:31;94027.97;;;19.49;66.09
11011;BME280;5558;42.702;23.178;2022-07-23T03:56:59;94029.38;;;19.85;64.79
11011;BME280;5558;42.702;23.178;2022-07-23T03:59:26;94019.94;;;20.13;63.99
11011;BME280;5558;42.702;23.178;2022-07-23T04:01:53;94020.47;;;20.49;62.46
11011;BME280;5558;42.702;23.178;2022-07-23T04:04:20;94018.22;;;20.86;60.50
11011;BME280;5558;42.702;23.178;2022-07-23T04:06:46;94019.16;;;21.15;59.03
11011;BME280;5558;42.702;23.178;2022-07-23T04:09:13;94021.38;;;21.59;57.80
11011;BME280;5558;42.702;23.178;2022-07-23T04:11:41;94020.31;;;21.90;56.31
11011;BME280;5558;42.702;23.178;2022-07-23T04:14:09;94025.63;;;22.27;54.99
11011;BME280;5558;42.702;23.178;2022-07-23T04:16:36;94026.00;;;22.67;53.43
11011;BME280;5558;42.702;23.178;2022-07-23T04:19:02;94034.03;;;23.08;51.96
11011;BME280;5558;42.702;23.178;2022-07-23T04:21:29;94030.13;;;23.50;50.83
11011;BME280;5558;42.702;23.178;2022-07-23T04:23:56;94027.25;;;23.79;49.99
11011;BME280;5558;42.702;23.178;2022-07-23T04:26:23;94044.28;;;24.16;49.25
11011;BME280;5558;42.702;23.178;2022-07-23T04:28:50;94039.94;;;24.51;48.84
11011;BME280;5558;42.702;23.178;2022-07-23T04:31:18;94039.44;;;24.85;48.17
11011;BME280;5558;42.702;23.178;2022-07-23T04:33:44;94041.94;;;25.33;47.33
11011;BME280;5558;42.702;23.178;2022-07-23T04:36:11;94048.22;;;25.65;46.43
11011;BME280;5558;42.702;23.178;2022-07-23T04:38:38;94048.44;;;26.03;44.32
11011;BME280;5558;42.702;23.178;2022-07-23T04:41:05;94045.97;;;26.29;43.09
11011;BME280;5558;42.702;23.178;2022-07-23T04:43:31;94044.50;;;26.67;42.26
11011;BME280;5558;42.702;23.178;2022-07-23T04:45:58;94046.47;;;27.04;41.90
11011;BME280;5558;42.702;23.178;2022-07-23T04:48:26;94055.22;;;27.32;41.72
11011;BME280;5558;42.702;23.178;2022-07-23T04:50:53;94045.97;;;27.56;41.72
11011;BME280;5558;42.702;23.178;2022-07-23T04:53:20;94054.47;;;27.77;41.75
11011;BME280;5558;42.702;23.178;2022-07-23T04:55:46;94050.13;;;28.14;41.54
11011;BME280;5558;42.702;23.178;2022-07-23T04:58:13;94041.19;;;28.66;40.07
11011;BME280;5558;42.702;23.178;2022-07-23T05:00:40;94047.28;;;29.12;38.73
11011;BME280;5558;42.702;23.178;2022-07-23T05:03:07;94047.31;;;29.48;40.00
11011;BME280;5558;42.702;23.178;2022-07-23T05:05:35;94043.50;;;29.89;38.64
11011;BME280;5558;42.702;23.178;2022-07-23T05:08:02;94044.88;;;30.13;38.61
11011;BME280;5558;42.702;23.178;2022-07-23T05:10:29;94042.31;;;29.90;37.88
11011;BME280;5558;42.702;23.178;2022-07-23T05:12:55;94047.75;;;29.87;37.83
11011;BME280;5558;42.702;23.178;2022-07-23T05:15:23;94052.97;;;30.03;36.97
11011;BME280;5558;42.702;23.178;2022-07-23T05:17:50;94054.56;;;30.04;35.70
11011;BME280;5558;42.702;23.178;2022-07-23T05:20:17;94044.44;;;30.55;35.50
11011;BME280;5558;42.702;23.178;2022-07-23T05:22:45;94057.06;;;30.73;34.84
11011;BME280;5558;42.702;23.178;2022-07-23T05:25:12;94059.63;;;31.03;34.78
11011;BME280;5558;42.702;23.178;2022-07-23T05:27:39;94062.22;;;31.61;33.57
11011;BME280;5558;42.702;23.178;2022-07-23T05:30:07;94060.78;;;31.88;33.66
11011;BME280;5558;42.702;23.178;2022-07-23T05:32:34;94063.94;;;32.22;33.15
11011;BME280;5558;42.702;23.178;2022-07-23T05:35:02;94069.84;;;32.59;32.33
11011;BME280;5558;42.702;23.178;2022-07-23T05:37:29;94070.19;;;33.06;31.82
11011;BME280;5558;42.702;23.178;2022-07-23T05:40:00;94066.91;;;33.57;30.57
11011;BME280;5558;42.702;23.178;2022-07-23T05:42:27;94048.28;;;33.89;29.62
11011;BME280;5558;42.702;23.178;2022-07-23T05:44:54;94070.63;;;33.98;29.96
11011;BME280;5558;42.702;23.178;2022-07-23T05:47:20;94063.50;;;34.08;30.04
11011;BME280;5558;42.702;23.178;2022-07-23T05:49:47;94070.88;;;34.21;29.86
11011;BME280;5558;42.702;23.178;2022-07-23T05:52:14;94061.47;;;34.70;29.83
11011;BME280;5558;42.702;23.178;2022-07-23T05:54:40;94067.38;;;34.69;29.14
11011;BME280;5558;42.702;23.178;2022-07-23T05:57:09;94066.28;;;35.40;28.21
11011;BME280;5558;42.702;23.178;2022-07-23T05:59:35;94074.06;;;35.79;27.82
11011;BME280;5558;42.702;23.178;2022-07-23T06:02:02;94064.03;;;35.96;27.30
11011;BME280;5558;42.702;23.178;2022-07-23T06:04:30;94059.56;;;35.75;28.27
11011;BME280;5558;42.702;23.178;2022-07-23T06:06:56;94058.31;;;36.10;28.33
11011;BME280;5558;42.702;23.178;2022-07-23T06:09:23;94063.72;;;36.17;28.85
11011;BME280;5558;42.702;23.178;2022-07-23T06:11:50;94060.22;;;36.13;28.72
11011;BME280;5558;42.702;23.178;2022-07-23T06:14:18;94064.72;;;36.56;28.73
11011;BME280;5558;42.702;23.178;2022-07-23T06:16:44;94068.00;;;36.48;27.55
11011;BME280;5558;42.702;23.178;2022-07-23T06:19:11;94067.66;;;37.15;27.32
11011;BME280;5558;42.702;23.178;2022-07-23T06:21:38;94069.50;;;37.22;25.93
11011;BME280;5558;42.702;23.178;2022-07-23T06:24:05;94069.31;;;36.90;27.44
11011;BME280;5558;42.702;23.178;2022-07-23T06:26:32;94062.19;;;36.65;27.50
11011;BME280;5558;42.702;23.178;2022-07-23T06:28:59;94065.19;;;36.74;27.29
11011;BME280;5558;42.702;23.178;2022-07-23T06:31:27;94064.16;;;37.11;26.63
11011;BME280;5558;42.702;23.178;2022-07-23T06:33:54;94061.94;;;36.83;26.76
11011;BME280;5558;42.702;23.178;2022-07-23T06:36:21;94066.59;;;37.71;26.76
11011;BME280;5558;42.702;23.178;2022-07-23T06:38:47;94064.94;;;37.94;26.60
11011;BME280;5558;42.702;23.178;2022-07-23T06:41:14;94073.19;;;38.13;26.65
11011;BME280;5558;42.702;23.178;2022-07-23T06:43:41;94065.78;;;38.26;26.60
11011;BME280;5558;42.702;23.178;2022-07-23T06:46:08;94063.28;;;38.16;26.25
11011;BME280;5558;42.702;23.178;2022-07-23T06:48:36;94069.13;;;37.20;26.64
11011;BME280;5558;42.702;23.178;2022-07-23T06:51:03;94059.56;;;37.47;26.87
11011;BME280;5558;42.702;23.178;2022-07-23T06:53:30;94056.28;;;36.90;26.84
11011;BME280;5558;42.702;23.178;2022-07-23T06:55:58;94069.06;;;36.81;26.77
11011;BME280;5558;42.702;23.178;2022-07-23T06:58:24;94063.47;;;37.07;27.26
11011;BME280;5558;42.702;23.178;2022-07-23T07:00:51;94070.81;;;37.96;27.50
11011;BME280;5558;42.702;23.178;2022-07-23T07:03:18;94057.28;;;38.53;25.71
11011;BME280;5558;42.702;23.178;2022-07-23T07:05:46;94070.72;;;39.31;24.78
11011;BME280;5558;42.702;23.178;2022-07-23T07:08:13;94066.50;;;39.84;24.71
11011;BME280;5558;42.702;23.178;2022-07-23T07:10:40;94064.25;;;40.20;23.85
11011;BME280;5558;42.702;23.178;2022-07-23T07:13:07;94067.72;;;39.26;24.62
11011;BME280;5558;42.702;23.178;2022-07-23T07:15:34;94066.09;;;39.57;24.44
11011;BME280;5558;42.702;23.178;2022-07-23T07:18:00;94058.03;;;40.41;23.72
11011;BME280;5558;42.702;23.178;2022-07-23T07:20:27;94052.72;;;39.68;24.88
11011;BME280;5558;42.702;23.178;2022-07-23T07:22:55;94061.34;;;39.70;24.29
11011;BME280;5558;42.702;23.178;2022-07-23T07:25:22;94046.84;;;40.57;23.53
11011;BME280;5558;42.702;23.178;2022-07-23T07:27:49;94044.81;;;39.38;25.26
11011;BME280;5558;42.702;23.178;2022-07-23T07:30:15;94045.97;;;38.79;26.03
11011;BME280;5558;42.702;23.178;2022-07-23T07:32:42;94053.22;;;39.34;24.62
11011;BME280;5558;42.702;23.178;2022-07-23T07:35:09;94048.16;;;39.17;25.50
11011;BME280;5558;42.702;23.178;2022-07-23T07:37:36;94041.91;;;38.68;25.09
11011;BME280;5558;42.702;23.178;2022-07-23T07:40:05;94044.88;;;37.70;26.12
11011;BME280;5558;42.702;23.178;2022-07-23T07:42:32;94036.13;;;37.36;26.44
11011;BME280;5558;42.702;23.178;2022-07-23T07:44:59;94045.66;;;37.31;27.27
11011;BME280;5558;42.702;23.178;2022-07-23T07:47:26;94045.66;;;37.31;26.35
11011;BME280;5558;42.702;23.178;2022-07-23T07:49:53;94041.28;;;38.09;25.65
11011;BME280;5558;42.702;23.178;2022-07-23T07:52:19;94038.06;;;38.94;24.10
11011;BME280;5558;42.702;23.178;2022-07-23T07:54:46;94044.72;;;39.13;24.72
11011;BME280;5558;42.702;23.178;2022-07-23T07:57:14;94035.91;;;38.37;25.03
11011;BME280;5558;42.702;23.178;2022-07-23T07:59:41;94039.84;;;37.84;26.04
11011;BME280;5558;42.702;23.178;2022-07-23T08:02:08;94034.88;;;38.79;25.28
11011;BME280;5558;42.702;23.178;2022-07-23T08:04:34;94034.63;;;38.74;24.65
11011;BME280;5558;42.702;23.178;2022-07-23T08:07:01;94034.78;;;39.28;24.08
11011;BME280;5558;42.702;23.178;2022-07-23T08:09:29;94037.81;;;40.28;23.94
11011;BME280;5558;42.702;23.178;2022-07-23T08:11:56;94039.97;;;40.37;23.40
11011;BME280;5558;42.702;23.178;2022-07-23T08:14:24;94036.53;;;41.04;22.53
11011;BME280;5558;42.702;23.178;2022-07-23T08:16:50;94031.59;;;40.24;22.98
11011;BME280;5558;42.702;23.178;2022-07-23T08:19:17;94031.38;;;39.52;24.02
11011;BME280;5558;42.702;23.178;2022-07-23T08:21:44;94030.88;;;38.32;25.96
11011;BME280;5558;42.702;23.178;2022-07-23T08:24:11;94012.66;;;36.82;25.90
11011;BME280;5558;42.702;23.178;2022-07-23T08:26:37;94018.16;;;35.15;28.70
11011;BME280;5558;42.702;23.178;2022-07-23T08:29:04;94019.25;;;34.91;30.93
11011;BME280;5558;42.702;23.178;2022-07-23T08:31:32;94020.50;;;34.35;31.74
11011;BME280;5558;42.702;23.178;2022-07-23T08:33:59;94017.66;;;33.91;32.47
11011;BME280;5558;42.702;23.178;2022-07-23T08:36:27;94013.59;;;33.44;32.55
11011;BME280;5558;42.702;23.178;2022-07-23T08:38:57;94009.69;;;33.34;32.57
11011;BME280;5558;42.702;23.178;2022-07-23T08:41:24;94010.13;;;33.22;34.60
11011;BME280;5558;42.702;23.178;2022-07-23T08:43:51;94008.19;;;33.19;32.90
11011;BME280;5558;42.702;23.178;2022-07-23T08:46:19;94016.47;;;33.09;32.65
11011;BME280;5558;42.702;23.178;2022-07-23T08:48:48;94008.69;;;32.76;33.55
11011;BME280;5558;42.702;23.178;2022-07-23T08:51:17;94013.44;;;32.54;33.75
11011;BME280;5558;42.702;23.178;2022-07-23T08:53:44;94005.19;;;32.61;33.20
11011;BME280;5558;42.702;23.178;2022-07-23T08:56:11;94005.16;;;32.82;32.81
11011;BME280;5558;42.702;23.178;2022-07-23T08:58:38;94013.00;;;32.66;33.58
11011;BME280;5558;42.702;23.178;2022-07-23T09:01:05;94003.66;;;32.53;33.99
11011;BME280;5558;42.702;23.178;2022-07-23T09:03:33;94005.94;;;31.84;35.36
11011;BME280;5558;42.702;23.178;2022-07-23T09:06:02;94004.81;;;32.17;34.58
11011;BME280;5558;42.702;23.178;2022-07-23T09:08:35;94005.19;;;32.61;34.31
11011;BME280;5558;42.702;23.178;2022-07-23T09:11:04;94006.00;;;32.41;34.26
11011;BME280;5558;42.702;23.178;2022-07-23T09:13:35;94002.47;;;31.91;33.32
11011;BME280;5558;42.702;23.178;2022-07-23T09:16:06;94001.69;;;32.04;33.48
11011;BME280;5558;42.702;23.178;2022-07-23T09:18:36;94010.69;;;32.22;34.01
11011;BME280;5558;42.702;23.178;2022-07-23T09:21:22;94001.69;;;32.47;31.88
11011;BME280;5558;42.702;23.178;2022-07-23T09:23:57;94001.69;;;32.54;34.08
11011;BME280;5558;42.702;23.178;2022-07-23T09:26:30;94004.78;;;32.77;34.59
11011;BME280;5558;42.702;23.178;2022-07-23T09:29:00;94002.41;;;32.86;32.09
11011;BME280;5558;42.702;23.178;2022-07-23T09:31:31;94001.63;;;32.96;30.42
11011;BME280;5558;42.702;23.178;2022-07-23T09:34:12;94003.19;;;32.97;30.55
11011;BME280;5558;42.702;23.178;2022-07-23T09:36:41;93995.75;;;32.76;28.59
11011;BME280;5558;42.702;23.178;2022-07-23T09:39:09;93995.72;;;33.04;29.12
11011;BME280;5558;42.702;23.178;2022-07-23T09:41:40;93982.31;;;33.20;30.04
11011;BME280;5558;42.702;23.178;2022-07-23T09:44:13;93988.59;;;33.21;29.17
11011;BME280;5558;42.702;23.178;2022-07-23T09:46:42;93980.78;;;33.12;28.56
11011;BME280;5558;42.702;23.178;2022-07-23T09:49:17;93979.56;;;33.17;29.63
11011;BME280;5558;42.702;23.178;2022-07-23T09:51:50;93979.97;;;33.19;28.60
11011;BME280;5558;42.702;23.178;2022-07-23T09:54:26;93975.97;;;33.34;29.13
11011;BME280;5558;42.702;23.178;2022-07-23T09:56:55;93985.13;;;33.10;27.75
11011;BME280;5558;42.702;23.178;2022-07-23T09:59:24;93976.06;;;33.20;27.18
11011;BME280;5558;42.702;23.178;2022-07-23T10:01:53;93975.56;;;33.35;27.34
11011;BME280;5558;42.702;23.178;2022-07-23T10:04:23;93975.13;;;33.51;29.09
11011;BME280;5558;42.702;23.178;2022-07-23T10:06:53;93971.94;;;33.60;29.37
11011;BME280;5558;42.702;23.178;2022-07-23T10:09:26;93964.50;;;33.57;27.09
11011;BME280;5558;42.702;23.178;2022-07-23T10:11:56;93962.97;;;33.52;27.32
11011;BME280;5558;42.702;23.178;2022-07-23T10:14:27;93966.16;;;33.44;25.77
11011;BME280;5558;42.702;23.178;2022-07-23T10:16:57;93964.31;;;33.09;25.84
11011;BME280;5558;42.702;23.178;2022-07-23T10:19:24;93960.88;;;32.87;25.53
11011;BME280;5558;42.702;23.178;2022-07-23T10:21:56;93958.41;;;33.14;26.64
11011;BME280;5558;42.702;23.178;2022-07-23T10:24:30;93957.94;;;33.33;26.22
11011;BME280;5558;42.702;23.178;2022-07-23T10:27:10;93955.53;;;33.46;25.91
11011;BME280;5558;42.702;23.178;2022-07-23T10:29:47;93957.75;;;33.68;25.59
11011;BME280;5558;42.702;23.178;2022-07-23T10:32:25;93947.53;;;33.72;24.43
11011;BME280;5558;42.702;23.178;2022-07-23T10:34:58;93949.44;;;33.82;25.62
11011;BME280;5558;42.702;23.178;2022-07-23T10:37:37;93946.91;;;33.47;21.90
11011;BME280;5558;42.702;23.178;2022-07-23T10:40:13;93945.03;;;33.30;24.60
11011;BME280;5558;42.702;23.178;2022-07-23T10:42:40;93944.25;;;33.29;23.80
11011;BME280;5558;42.702;23.178;2022-07-23T10:45:30;93943.13;;;33.16;22.72
11011;BME280;5558;42.702;23.178;2022-07-23T10:48:12;93939.81;;;33.50;23.01
11011;BME280;5558;42.702;23.178;2022-07-23T10:50:41;93939.28;;;33.76;22.22
11011;BME280;5558;42.702;23.178;2022-07-23T10:53:14;93931.72;;;33.87;22.97
11011;BME280;5558;42.702;23.178;2022-07-23T10:55:45;93936.44;;;33.83;21.30
11011;BME280;5558;42.702;23.178;2022-07-23T10:58:18;93914.53;;;33.79;20.70
11011;BME280;5558;42.702;23.178;2022-07-23T11:00:46;93932.53;;;33.84;20.20
11011;BME280;5558;42.702;23.178;2022-07-23T11:03:30;93923.53;;;33.80;22.02
11011;BME280;5558;42.702;23.178;2022-07-23T11:06:00;93923.03;;;33.99;23.36
11011;BME280;5558;42.702;23.178;2022-07-23T11:08:28;93921.59;;;34.28;22.09
11011;BME280;5558;42.702;23.178;2022-07-23T11:11:08;93911.78;;;34.23;20.55
11011;BME280;5558;42.702;23.178;2022-07-23T11:13:40;93905.91;;;34.25;20.79
11011;BME280;5558;42.702;23.178;2022-07-23T11:16:26;93905.94;;;34.21;20.94
11011;BME280;5558;42.702;23.178;2022-07-23T11:19:06;93906.50;;;34.02;20.36
11011;BME280;5558;42.702;23.178;2022-07-23T11:21:47;93903.38;;;34.00;20.24
11011;BME280;5558;42.702;23.178;2022-07-23T11:24:21;93904.41;;;34.13;21.27
11011;BME280;5558;42.702;23.178;2022-07-23T11:26:51;93900.59;;;34.04;21.59
11011;BME280;5558;42.702;23.178;2022-07-23T11:29:37;93887.19;;;34.09;21.58
11011;BME280;5558;42.702;23.178;2022-07-23T11:32:06;93899.72;;;34.14;20.61
11011;BME280;5558;42.702;23.178;2022-07-23T11:34:34;93899.41;;;34.05;20.80
11011;BME280;5558;42.702;23.178;2022-07-23T11:37:03;93901.72;;;34.10;21.36
11011;BME280;5558;42.702;23.178;2022-07-23T11:39:32;93881.91;;;33.81;21.58
11011;BME280;5558;42.702;23.178;2022-07-23T11:42:01;93890.06;;;33.95;21.73
11011;BME280;5558;42.702;23.178;2022-07-23T11:44:31;93855.16;;;33.92;21.12
11011;BME280;5558;42.702;23.178;2022-07-23T11:47:01;93879.25;;;34.18;23.96
11011;BME280;5558;42.702;23.178;2022-07-23T11:49:28;93876.22;;;34.09;21.55
11011;BME280;5558;42.702;23.178;2022-07-23T11:52:05;93870.38;;;34.41;22.20
11011;BME280;5558;42.702;23.178;2022-07-23T11:54:37;93880.78;;;34.64;21.46
11011;BME280;5558;42.702;23.178;2022-07-23T11:57:04;93878.38;;;34.66;19.33
11011;BME280;5558;42.702;23.178;2022-07-23T11:59:32;93877.53;;;34.72;22.37
11011;BME280;5558;42.702;23.178;2022-07-23T12:02:00;93878.81;;;34.61;19.83
11011;BME280;5558;42.702;23.178;2022-07-23T12:04:37;93877.97;;;34.30;19.63
11011;BME280;5558;42.702;23.178;2022-07-23T12:07:05;93875.59;;;34.28;20.46
11011;BME280;5558;42.702;23.178;2022-07-23T12:09:49;93869.97;;;34.46;20.44
11011;BME280;5558;42.702;23.178;2022-07-23T12:12:16;93861.66;;;34.50;19.87
11011;BME280;5558;42.702;23.178;2022-07-23T12:14:50;93860.72;;;34.63;19.88
11011;BME280;5558;42.702;23.178;2022-07-23T12:17:18;93862.91;;;34.45;19.83
11011;BME280;5558;42.702;23.178;2022-07-23T12:19:45;93872.63;;;34.53;21.30
11011;BME280;5558;42.702;23.178;2022-07-23T12:22:13;93861.47;;;34.30;20.34
11011;BME280;5558;42.702;23.178;2022-07-23T12:24:58;93854.31;;;34.36;20.13
11011;BME280;5558;42.702;23.178;2022-07-23T12:27:25;93850.38;;;34.37;19.71
11011;BME280;5558;42.702;23.178;2022-07-23T12:29:52;93863.75;;;34.38;20.43
11011;BME280;5558;42.702;23.178;2022-07-23T12:32:21;93844.09;;;34.40;20.00
11011;BME280;5558;42.702;23.178;2022-07-23T12:34:50;93838.72;;;34.63;19.90
11011;BME280;5558;42.702;23.178;2022-07-23T12:37:28;93837.44;;;34.71;19.92
11011;BME280;5558;42.702;23.178;2022-07-23T12:39:56;93840.38;;;34.87;20.23
11011;BME280;5558;42.702;23.178;2022-07-23T12:42:23;93839.72;;;34.76;19.49
11011;BME280;5558;42.702;23.178;2022-07-23T12:45:10;93830.66;;;34.79;21.58
11011;BME280;5558;42.702;23.178;2022-07-23T12:47:58;93827.59;;;34.74;19.58
11011;BME280;5558;42.702;23.178;2022-07-23T12:50:33;93824.19;;;34.63;19.56
11011;BME280;5558;42.702;23.178;2022-07-23T12:53:05;93833.47;;;34.76;19.43
11011;BME280;5558;42.702;23.178;2022-07-23T12:55:33;93828.69;;;34.80;19.08
11011;BME280;5558;42.702;23.178;2022-07-23T12:58:05;93813.06;;;34.73;19.09
11011;BME280;5558;42.702;23.178;2022-07-23T13:00:34;93830.59;;;34.83;19.58
11011;BME280;5558;42.702;23.178;2022-07-23T13:03:21;93828.47;;;34.67;19.66
11011;BME280;5558;42.702;23.178;2022-07-23T13:05:48;93824.19;;;34.63;19.38
11011;BME280;5558;42.702;23.178;2022-07-23T13:08:16;93823.47;;;34.59;19.63